sensor_id;sensor_type;location;lat;lon;timestamp;temperature;humidity
16955;DHT22;8594;52.052;8.354;2023-02-10T00:02:05;5.10;99.90
16955;DHT22;8594;52.052;8.354;2023-02-10T00:04:33;5.10;99.90
16955;DHT22;8594;52.052;8.354;2023-02-10T00:07:00;5.10;99.90
16955;DHT22;8594;52.052;8.354;2023-02-10T00:09:27;5.20;99.90
16955;DHT22;8594;52.052;8.354;2023-02-10T00:11:54;5.20;99.90
16955;DHT22;8594;52.052;8.354;2023-02-10T00:14:26;5.20;99.90
16955;DHT22;8594;52.052;8.354;2023-02-10T00:16:54;5.10;99.90
16955;DHT22;8594;52.052;8.354;2023-02-10T00:19:24;5.20;99.90
16955;DHT22;8594;52.052;8.354;2023-02-10T00:21:54;5.10;99.90
16955;DHT22;8594;52.052;8.354;2023-02-10T00:24:21;5.10;99.90
16955;DHT22;8594;52.052;8.354;2023-02-10T00:26:48;5.10;99.90
16955;DHT22;8594;52.052;8.354;2023-02-10T00:29:16;5.00;99.90
16955;DHT22;8594;52.052;8.354;2023-02-10T00:31:43;5.10;99.90
16955;DHT22;8594;52.052;8.354;2023-02-10T00:34:11;5.10;99.90
16955;DHT22;8594;52.052;8.354;2023-02-10T00:36:40;5.20;99.90
16955;DHT22;8594;52.052;8.354;2023-02-10T00:39:12;5.30;99.90
16955;DHT22;8594;52.052;8.354;2023-02-10T00:41:39;5.20;99.90
16955;DHT22;8594;52.052;8.354;2023-02-10T00:44:06;5.20;99.90
16955;DHT22;8594;52.052;8.354;2023-02-10T00:46:33;5.10;99.90
16955;DHT22;8594;52.052;8.354;2023-02-10T00:49:00;5.10;99.90
16955;DHT22;8594;52.052;8.354;2023-02-10T00:51:27;5.10;99.90
16955;DHT22;8594;52.052;8.354;2023-02-10T00:53:54;5.20;99.90
16955;DHT22;8594;52.052;8.354;2023-02-10T00:56:22;5.20;99.90
16955;DHT22;8594;52.052;8.354;2023-02-10T00:58:49;5.10;99.90
16955;DHT22;8594;52.052;8.354;2023-02-10T01:01:15;5.10;99.90
16955;DHT22;8594;52.052;8.354;2023-02-10T01:03:43;5.20;99.90
16955;DHT22;8594;52.052;8.354;2023-02-10T01:06:10;5.20;99.90
16955;DHT22;8594;52.052;8.354;2023-02-10T01:08:40;5.10;99.90
16955;DHT22;8594;52.052;8.354;2023-02-10T01:11:09;5.20;99.90
16955;DHT22;8594;52.052;8.354;2023-02-10T01:13:39;5.20;99.90
16955;DHT22;8594;52.052;8.354;2023-02-10T01:16:09;5.10;99.90
16955;DHT22;8594;52.052;8.354;2023-02-10T01:18:39;5.00;99.90
16955;DHT22;8594;52.052;8.354;2023-02-10T01:21:08;5.10;99.90
16955;DHT22;8594;52.052;8.354;2023-02-10T01:23:36;5.10;99.90
16955;DHT22;8594;52.052;8.354;2023-02-10T01:26:03;5.20;99.90
16955;DHT22;8594;52.052;8.354;2023-02-10T01:28:30;5.20;99.90
16955;DHT22;8594;52.052;8.354;2023-02-10T01:30:58;5.30;99.90
16955;DHT22;8594;52.052;8.354;2023-02-10T01:33:30;5.30;99.90
16955;DHT22;8594;52.052;8.354;2023-02-10T01:35:56;5.30;99.90
16955;DHT22;8594;52.052;8.354;2023-02-10T01:38:24;5.20;99.90
16955;DHT22;8594;52.052;8.354;2023-02-10T01:40:50;5.20;99.90
16955;DHT22;8594;52.052;8.354;2023-02-10T01:43:17;5.30;99.90
16955;DHT22;8594;52.052;8.354;2023-02-10T01:45:46;5.10;99.90
16955;DHT22;8594;52.052;8.354;2023-02-10T01:48:14;5.10;99.90
16955;DHT22;8594;52.052;8.354;2023-02-10T01:50:45;5.10;99.90
16955;DHT22;8594;52.052;8.354;2023-02-10T01:53:16;5.10;99.90
16955;DHT22;8594;52.052;8.354;2023-02-10T01:55:46;5.10;99.90
16955;DHT22;8594;52.052;8.354;2023-02-10T01:58:20;5.10;99.90
16955;DHT22;8594;52.052;8.354;2023-02-10T02:00:50;5.00;99.90
16955;DHT22;8594;52.052;8.354;2023-02-10T02:03:18;5.00;99.90
16955;DHT22;8594;52.052;8.354;2023-02-10T02:05:45;5.10;99.90
16955;DHT22;8594;52.052;8.354;2023-02-10T02:08:14;5.10;99.90
16955;DHT22;8594;52.052;8.354;2023-02-10T02:10:51;5.20;99.90
16955;DHT22;8594;52.052;8.354;2023-02-10T02:13:43;5.20;99.90
16955;DHT22;8594;52.052;8.354;2023-02-10T02:16:34;5.10;99.90
16955;DHT22;8594;52.052;8.354;2023-02-10T02:19:25;5.20;99.90
16955;DHT22;8594;52.052;8.354;2023-02-10T02:22:53;5.30;99.90
16955;DHT22;8594;52.052;8.354;2023-02-10T02:29:05;5.20;99.90
16955;DHT22;8594;52.052;8.354;2023-02-10T02:31:54;5.30;99.90
16955;DHT22;8594;52.052;8.354;2023-02-10T02:34:30;5.30;99.90
16955;DHT22;8594;52.052;8.354;2023-02-10T02:37:07;5.30;99.90
16955;DHT22;8594;52.052;8.354;2023-02-10T02:39:40;5.20;99.90
16955;DHT22;8594;52.052;8.354;2023-02-10T02:42:17;5.10;99.90
16955;DHT22;8594;52.052;8.354;2023-02-10T02:44:48;5.20;99.90
16955;DHT22;8594;52.052;8.354;2023-02-10T02:47:30;5.30;99.90
16955;DHT22;8594;52.052;8.354;2023-02-10T02:50:34;5.20;99.90
16955;DHT22;8594;52.052;8.354;2023-02-10T02:53:10;5.30;99.90
16955;DHT22;8594;52.052;8.354;2023-02-10T02:55:52;5.40;99.90
16955;DHT22;8594;52.052;8.354;2023-02-10T02:58:33;5.50;99.90
16955;DHT22;8594;52.052;8.354;2023-02-10T03:01:12;5.60;99.90
16955;DHT22;8594;52.052;8.354;2023-02-10T03:03:43;5.50;99.90
16955;DHT22;8594;52.052;8.354;2023-02-10T03:06:10;5.50;99.90
16955;DHT22;8594;52.052;8.354;2023-02-10T03:08:39;5.40;99.90
16955;DHT22;8594;52.052;8.354;2023-02-10T03:11:07;5.40;99.90
16955;DHT22;8594;52.052;8.354;2023-02-10T03:13:34;5.40;99.90
16955;DHT22;8594;52.052;8.354;2023-02-10T03:16:01;5.40;99.90
16955;DHT22;8594;52.052;8.354;2023-02-10T03:18:29;5.50;99.90
16955;DHT22;8594;52.052;8.354;2023-02-10T03:20:57;5.40;99.90
16955;DHT22;8594;52.052;8.354;2023-02-10T03:23:24;5.30;99.90
16955;DHT22;8594;52.052;8.354;2023-02-10T03:25:51;5.10;99.90
16955;DHT22;8594;52.052;8.354;2023-02-10T03:28:18;5.00;99.90
16955;DHT22;8594;52.052;8.354;2023-02-10T03:30:45;5.10;99.90
16955;DHT22;8594;52.052;8.354;2023-02-10T03:33:16;5.20;99.90
16955;DHT22;8594;52.052;8.354;2023-02-10T03:35:44;5.30;99.90
16955;DHT22;8594;52.052;8.354;2023-02-10T03:38:14;5.30;99.90
16955;DHT22;8594;52.052;8.354;2023-02-10T03:40:41;5.30;99.90
16955;DHT22;8594;52.052;8.354;2023-02-10T03:43:08;5.30;99.90
16955;DHT22;8594;52.052;8.354;2023-02-10T03:45:35;5.20;99.90
16955;DHT22;8594;52.052;8.354;2023-02-10T03:48:04;5.00;99.90
16955;DHT22;8594;52.052;8.354;2023-02-10T03:50:31;4.90;99.90
16955;DHT22;8594;52.052;8.354;2023-02-10T03:52:58;4.80;99.90
16955;DHT22;8594;52.052;8.354;2023-02-10T03:55:26;4.90;99.90
16955;DHT22;8594;52.052;8.354;2023-02-10T03:57:53;4.90;99.90
16955;DHT22;8594;52.052;8.354;2023-02-10T04:00:20;5.00;99.90
16955;DHT22;8594;52.052;8.354;2023-02-10T04:02:48;4.80;99.90
16955;DHT22;8594;52.052;8.354;2023-02-10T04:05:15;4.80;99.90
16955;DHT22;8594;52.052;8.354;2023-02-10T04:07:42;4.80;99.90
16955;DHT22;8594;52.052;8.354;2023-02-10T04:10:09;4.90;99.90
16955;DHT22;8594;52.052;8.354;2023-02-10T04:12:37;4.90;99.90
16955;DHT22;8594;52.052;8.354;2023-02-10T04:15:05;4.90;99.90
16955;DHT22;8594;52.052;8.354;2023-02-10T04:17:33;4.90;99.90
16955;DHT22;8594;52.052;8.354;2023-02-10T04:20:00;4.90;99.90
16955;DHT22;8594;52.052;8.354;2023-02-10T04:22:27;4.80;99.90
16955;DHT22;8594;52.052;8.354;2023-02-10T04:24:54;4.90;99.90
16955;DHT22;8594;52.052;8.354;2023-02-10T04:27:21;4.80;99.90
16955;DHT22;8594;52.052;8.354;2023-02-10T04:29:49;4.70;99.90
16955;DHT22;8594;52.052;8.354;2023-02-10T04:32:16;4.70;99.90
16955;DHT22;8594;52.052;8.354;2023-02-10T04:34:43;4.70;99.90
16955;DHT22;8594;52.052;8.354;2023-02-10T04:37:09;4.70;99.90
16955;DHT22;8594;52.052;8.354;2023-02-10T04:39:36;4.70;99.90
16955;DHT22;8594;52.052;8.354;2023-02-10T04:42:03;4.70;99.90
16955;DHT22;8594;52.052;8.354;2023-02-10T04:44:30;4.70;99.90
16955;DHT22;8594;52.052;8.354;2023-02-10T04:46:58;4.60;99.90
16955;DHT22;8594;52.052;8.354;2023-02-10T04:49:25;4.50;99.90
16955;DHT22;8594;52.052;8.354;2023-02-10T04:51:53;4.40;99.90
16955;DHT22;8594;52.052;8.354;2023-02-10T04:54:22;4.50;99.90
16955;DHT22;8594;52.052;8.354;2023-02-10T04:56:50;4.60;99.90
16955;DHT22;8594;52.052;8.354;2023-02-10T04:59:17;4.50;99.90
16955;DHT22;8594;52.052;8.354;2023-02-10T05:01:43;4.60;99.90
16955;DHT22;8594;52.052;8.354;2023-02-10T05:04:12;4.70;99.90
16955;DHT22;8594;52.052;8.354;2023-02-10T05:06:38;4.80;99.90
16955;DHT22;8594;52.052;8.354;2023-02-10T05:09:05;4.60;99.90
16955;DHT22;8594;52.052;8.354;2023-02-10T05:11:32;4.60;99.90
16955;DHT22;8594;52.052;8.354;2023-02-10T05:13:59;4.60;99.90
16955;DHT22;8594;52.052;8.354;2023-02-10T05:16:25;4.60;99.90
16955;DHT22;8594;52.052;8.354;2023-02-10T05:18:52;4.50;99.90
16955;DHT22;8594;52.052;8.354;2023-02-10T05:21:20;4.50;99.90
16955;DHT22;8594;52.052;8.354;2023-02-10T05:23:47;4.50;99.90
16955;DHT22;8594;52.052;8.354;2023-02-10T05:26:14;4.60;99.90
16955;DHT22;8594;52.052;8.354;2023-02-10T05:28:41;4.60;99.90
16955;DHT22;8594;52.052;8.354;2023-02-10T05:31:08;4.70;99.90
16955;DHT22;8594;52.052;8.354;2023-02-10T05:33:35;4.70;99.90
16955;DHT22;8594;52.052;8.354;2023-02-10T05:36:02;4.60;99.90
16955;DHT22;8594;52.052;8.354;2023-02-10T05:38:31;4.60;99.90
16955;DHT22;8594;52.052;8.354;2023-02-10T05:40:59;4.60;99.90
16955;DHT22;8594;52.052;8.354;2023-02-10T05:43:25;4.70;99.90
16955;DHT22;8594;52.052;8.354;2023-02-10T05:45:52;4.70;99.90
16955;DHT22;8594;52.052;8.354;2023-02-10T05:48:19;4.70;99.90
16955;DHT22;8594;52.052;8.354;2023-02-10T05:50:49;4.70;99.90
16955;DHT22;8594;52.052;8.354;2023-02-10T05:53:17;4.70;99.90
16955;DHT22;8594;52.052;8.354;2023-02-10T05:55:46;4.70;99.90
16955;DHT22;8594;52.052;8.354;2023-02-10T05:58:13;4.50;99.90
16955;DHT22;8594;52.052;8.354;2023-02-10T06:00:40;4.60;99.90
16955;DHT22;8594;52.052;8.354;2023-02-10T06:03:07;4.50;99.90
16955;DHT22;8594;52.052;8.354;2023-02-10T06:05:34;4.30;99.90
16955;DHT22;8594;52.052;8.354;2023-02-10T06:08:01;4.30;99.90
16955;DHT22;8594;52.052;8.354;2023-02-10T06:10:28;4.20;99.90
16955;DHT22;8594;52.052;8.354;2023-02-10T06:12:56;4.40;99.90
16955;DHT22;8594;52.052;8.354;2023-02-10T06:15:23;4.40;99.90
16955;DHT22;8594;52.052;8.354;2023-02-10T06:17:49;4.30;99.90
16955;DHT22;8594;52.052;8.354;2023-02-10T06:20:16;4.30;99.90
16955;DHT22;8594;52.052;8.354;2023-02-10T06:22:43;4.40;99.90
16955;DHT22;8594;52.052;8.354;2023-02-10T06:25:10;4.40;99.90
16955;DHT22;8594;52.052;8.354;2023-02-10T06:27:37;4.50;99.90
16955;DHT22;8594;52.052;8.354;2023-02-10T06:30:06;4.50;99.90
16955;DHT22;8594;52.052;8.354;2023-02-10T06:32:34;4.40;99.90
16955;DHT22;8594;52.052;8.354;2023-02-10T06:35:01;4.30;99.90
16955;DHT22;8594;52.052;8.354;2023-02-10T06:37:28;4.30;99.90
16955;DHT22;8594;52.052;8.354;2023-02-10T06:39:55;4.40;99.90
16955;DHT22;8594;52.052;8.354;2023-02-10T06:42:22;4.30;99.90
16955;DHT22;8594;52.052;8.354;2023-02-10T06:44:49;4.40;99.90
16955;DHT22;8594;52.052;8.354;2023-02-10T06:47:17;4.40;99.90
16955;DHT22;8594;52.052;8.354;2023-02-10T06:49:44;4.40;99.90
16955;DHT22;8594;52.052;8.354;2023-02-10T06:52:10;4.40;99.90
16955;DHT22;8594;52.052;8.354;2023-02-10T06:54:37;4.30;99.90
16955;DHT22;8594;52.052;8.354;2023-02-10T06:57:04;4.40;99.90
16955;DHT22;8594;52.052;8.354;2023-02-10T06:59:32;4.40;99.90
16955;DHT22;8594;52.052;8.354;2023-02-10T07:01:59;4.40;99.90
16955;DHT22;8594;52.052;8.354;2023-02-10T07:04:28;4.40;99.90
16955;DHT22;8594;52.052;8.354;2023-02-10T07:06:56;4.50;99.90
16955;DHT22;8594;52.052;8.354;2023-02-10T07:09:23;4.40;99.90
16955;DHT22;8594;52.052;8.354;2023-02-10T07:11:50;4.30;99.90
16955;DHT22;8594;52.052;8.354;2023-02-10T07:14:17;4.40;99.90
16955;DHT22;8594;52.052;8.354;2023-02-10T07:16:44;4.40;99.90
16955;DHT22;8594;52.052;8.354;2023-02-10T07:19:11;4.60;99.90
16955;DHT22;8594;52.052;8.354;2023-02-10T07:21:39;4.50;99.90
16955;DHT22;8594;52.052;8.354;2023-02-10T07:24:06;4.40;99.90
16955;DHT22;8594;52.052;8.354;2023-02-10T07:26:33;4.50;99.90
16955;DHT22;8594;52.052;8.354;2023-02-10T07:29:00;4.50;99.90
16955;DHT22;8594;52.052;8.354;2023-02-10T07:31:27;4.50;99.90
16955;DHT22;8594;52.052;8.354;2023-02-10T07:33:54;4.50;99.90
16955;DHT22;8594;52.052;8.354;2023-02-10T07:36:21;4.60;99.90
16955;DHT22;8594;52.052;8.354;2023-02-10T07:38:49;4.70;99.90
16955;DHT22;8594;52.052;8.354;2023-02-10T07:41:16;4.60;99.90
16955;DHT22;8594;52.052;8.354;2023-02-10T07:43:43;4.50;99.90
16955;DHT22;8594;52.052;8.354;2023-02-10T07:46:09;4.60;99.90
16955;DHT22;8594;52.052;8.354;2023-02-10T07:48:36;4.70;99.90
16955;DHT22;8594;52.052;8.354;2023-02-10T07:51:04;4.70;99.90
16955;DHT22;8594;52.052;8.354;2023-02-10T07:53:31;4.80;99.90
16955;DHT22;8594;52.052;8.354;2023-02-10T07:55:59;4.80;99.90
16955;DHT22;8594;52.052;8.354;2023-02-10T07:58:26;4.60;99.90
16955;DHT22;8594;52.052;8.354;2023-02-10T08:00:53;4.50;99.90
16955;DHT22;8594;52.052;8.354;2023-02-10T08:03:19;4.50;99.90
16955;DHT22;8594;52.052;8.354;2023-02-10T08:05:46;4.50;99.90
16955;DHT22;8594;52.052;8.354;2023-02-10T08:08:14;4.60;99.90
16955;DHT22;8594;52.052;8.354;2023-02-10T08:10:41;4.60;99.90
16955;DHT22;8594;52.052;8.354;2023-02-10T08:13:10;4.50;99.90
16955;DHT22;8594;52.052;8.354;2023-02-10T08:15:36;4.60;99.90
16955;DHT22;8594;52.052;8.354;2023-02-10T08:18:03;4.60;99.90
16955;DHT22;8594;52.052;8.354;2023-02-10T08:20:30;4.50;99.90
16955;DHT22;8594;52.052;8.354;2023-02-10T08:22:57;4.60;99.90
16955;DHT22;8594;52.052;8.354;2023-02-10T08:25:25;4.70;99.90
16955;DHT22;8594;52.052;8.354;2023-02-10T08:27:52;4.60;99.90
16955;DHT22;8594;52.052;8.354;2023-02-10T08:30:20;4.60;99.90
16955;DHT22;8594;52.052;8.354;2023-02-10T08:32:47;4.70;99.90
16955;DHT22;8594;52.052;8.354;2023-02-10T08:35:14;4.70;99.90
16955;DHT22;8594;52.052;8.354;2023-02-10T08:37:41;4.70;99.90
16955;DHT22;8594;52.052;8.354;2023-02-10T08:40:08;4.70;99.90
16955;DHT22;8594;52.052;8.354;2023-02-10T08:42:35;4.60;99.90
16955;DHT22;8594;52.052;8.354;2023-02-10T08:45:02;4.70;99.90
16955;DHT22;8594;52.052;8.354;2023-02-10T08:47:32;4.80;99.90
16955;DHT22;8594;52.052;8.354;2023-02-10T08:49:59;4.80;99.90
16955;DHT22;8594;52.052;8.354;2023-02-10T08:52:26;4.80;99.90
16955;DHT22;8594;52.052;8.354;2023-02-10T08:54:53;4.70;99.90
16955;DHT22;8594;52.052;8.354;2023-02-10T08:57:20;4.70;99.90
16955;DHT22;8594;52.052;8.354;2023-02-10T08:59:47;4.60;99.90
16955;DHT22;8594;52.052;8.354;2023-02-10T09:02:14;4.40;99.90
16955;DHT22;8594;52.052;8.354;2023-02-10T09:04:42;4.50;99.90
16955;DHT22;8594;52.052;8.354;2023-02-10T09:07:09;4.50;99.90
16955;DHT22;8594;52.052;8.354;2023-02-10T09:09:40;4.70;99.90
16955;DHT22;8594;52.052;8.354;2023-02-10T09:12:08;4.60;99.90
16955;DHT22;8594;52.052;8.354;2023-02-10T09:14:37;4.70;99.90
16955;DHT22;8594;52.052;8.354;2023-02-10T09:17:04;4.80;99.90
16955;DHT22;8594;52.052;8.354;2023-02-10T09:19:33;4.70;99.90
16955;DHT22;8594;52.052;8.354;2023-02-10T09:22:01;4.70;99.90
16955;DHT22;8594;52.052;8.354;2023-02-10T09:24:28;4.70;99.90
16955;DHT22;8594;52.052;8.354;2023-02-10T09:26:55;4.60;99.90
16955;DHT22;8594;52.052;8.354;2023-02-10T09:29:22;4.60;99.90
16955;DHT22;8594;52.052;8.354;2023-02-10T09:31:49;4.60;99.90
16955;DHT22;8594;52.052;8.354;2023-02-10T09:34:16;4.70;99.90
16955;DHT22;8594;52.052;8.354;2023-02-10T09:36:43;4.80;99.90
16955;DHT22;8594;52.052;8.354;2023-02-10T09:39:11;5.00;99.90
16955;DHT22;8594;52.052;8.354;2023-02-10T09:41:44;5.10;99.90
16955;DHT22;8594;52.052;8.354;2023-02-10T09:44:20;5.00;99.90
16955;DHT22;8594;52.052;8.354;2023-02-10T09:47:15;5.00;99.90
16955;DHT22;8594;52.052;8.354;2023-02-10T09:50:26;5.20;99.90
16955;DHT22;8594;52.052;8.354;2023-02-10T09:53:04;5.10;99.90
16955;DHT22;8594;52.052;8.354;2023-02-10T09:55:40;4.90;99.90
16955;DHT22;8594;52.052;8.354;2023-02-10T09:58:21;5.00;99.90
16955;DHT22;8594;52.052;8.354;2023-02-10T10:00:57;5.20;99.90
16955;DHT22;8594;52.052;8.354;2023-02-10T10:03:34;5.30;99.90
16955;DHT22;8594;52.052;8.354;2023-02-10T10:06:12;5.30;99.90
16955;DHT22;8594;52.052;8.354;2023-02-10T10:08:52;5.10;99.90
16955;DHT22;8594;52.052;8.354;2023-02-10T10:11:29;5.00;99.90
16955;DHT22;8594;52.052;8.354;2023-02-10T10:14:02;5.10;99.90
16955;DHT22;8594;52.052;8.354;2023-02-10T10:16:52;5.20;99.90
16955;DHT22;8594;52.052;8.354;2023-02-10T10:19:35;5.30;99.90
16955;DHT22;8594;52.052;8.354;2023-02-10T10:22:25;5.20;99.90
16955;DHT22;8594;52.052;8.354;2023-02-10T10:25:14;5.30;99.90
16955;DHT22;8594;52.052;8.354;2023-02-10T10:27:57;5.40;99.90
16955;DHT22;8594;52.052;8.354;2023-02-10T10:30:38;5.40;99.90
16955;DHT22;8594;52.052;8.354;2023-02-10T10:33:20;5.40;99.90
16955;DHT22;8594;52.052;8.354;2023-02-10T10:35:50;5.40;99.90
16955;DHT22;8594;52.052;8.354;2023-02-10T10:38:20;5.40;99.90
16955;DHT22;8594;52.052;8.354;2023-02-10T10:40:51;5.40;99.90
16955;DHT22;8594;52.052;8.354;2023-02-10T10:43:26;5.40;99.90
16955;DHT22;8594;52.052;8.354;2023-02-10T10:45:59;5.50;99.90
16955;DHT22;8594;52.052;8.354;2023-02-10T10:48:30;5.40;99.90
16955;DHT22;8594;52.052;8.354;2023-02-10T10:51:01;5.40;99.90
16955;DHT22;8594;52.052;8.354;2023-02-10T10:53:36;5.40;99.90
16955;DHT22;8594;52.052;8.354;2023-02-10T10:56:07;5.60;99.90
16955;DHT22;8594;52.052;8.354;2023-02-10T10:58:44;5.90;99.90
16955;DHT22;8594;52.052;8.354;2023-02-10T11:01:13;6.10;99.90
16955;DHT22;8594;52.052;8.354;2023-02-10T11:03:41;6.30;99.90
16955;DHT22;8594;52.052;8.354;2023-02-10T11:06:10;6.40;99.90
16955;DHT22;8594;52.052;8.354;2023-02-10T11:08:42;6.40;99.90
16955;DHT22;8594;52.052;8.354;2023-02-10T11:11:13;6.70;99.90
16955;DHT22;8594;52.052;8.354;2023-02-10T11:13:51;6.90;99.90
16955;DHT22;8594;52.052;8.354;2023-02-10T11:16:22;7.00;99.90
16955;DHT22;8594;52.052;8.354;2023-02-10T11:18:53;7.10;99.90
16955;DHT22;8594;52.052;8.354;2023-02-10T11:21:32;7.20;99.90
16955;DHT22;8594;52.052;8.354;2023-02-10T11:24:01;7.00;99.90
16955;DHT22;8594;52.052;8.354;2023-02-10T11:26:29;7.00;99.90
16955;DHT22;8594;52.052;8.354;2023-02-10T11:29:09;7.10;99.90
16955;DHT22;8594;52.052;8.354;2023-02-10T11:31:37;7.50;99.90
16955;DHT22;8594;52.052;8.354;2023-02-10T11:34:14;7.70;99.90
16955;DHT22;8594;52.052;8.354;2023-02-10T11:36:47;8.20;99.90
16955;DHT22;8594;52.052;8.354;2023-02-10T11:39:20;8.40;99.90
16955;DHT22;8594;52.052;8.354;2023-02-10T11:41:50;8.50;99.90
16955;DHT22;8594;52.052;8.354;2023-02-10T11:44:24;8.60;99.90
16955;DHT22;8594;52.052;8.354;2023-02-10T11:46:58;8.30;99.90
16955;DHT22;8594;52.052;8.354;2023-02-10T11:49:27;8.70;99.90
16955;DHT22;8594;52.052;8.354;2023-02-10T11:51:58;8.90;99.90
16955;DHT22;8594;52.052;8.354;2023-02-10T11:54:27;9.00;99.90
16955;DHT22;8594;52.052;8.354;2023-02-10T11:57:04;8.90;99.90
16955;DHT22;8594;52.052;8.354;2023-02-10T12:00:17;9.10;99.90
16955;DHT22;8594;52.052;8.354;2023-02-10T12:03:12;9.30;99.90
16955;DHT22;8594;52.052;8.354;2023-02-10T12:06:00;9.30;99.90
16955;DHT22;8594;52.052;8.354;2023-02-10T12:08:40;9.10;99.90
16955;DHT22;8594;52.052;8.354;2023-02-10T12:11:17;9.00;99.90
16955;DHT22;8594;52.052;8.354;2023-02-10T12:13:54;9.20;99.90
16955;DHT22;8594;52.052;8.354;2023-02-10T12:16:35;9.00;99.90
16955;DHT22;8594;52.052;8.354;2023-02-10T12:19:23;8.90;99.90
16955;DHT22;8594;52.052;8.354;2023-02-10T12:22:04;8.90;99.90
16955;DHT22;8594;52.052;8.354;2023-02-10T12:27:45;8.80;99.90
16955;DHT22;8594;52.052;8.354;2023-02-10T12:30:28;8.70;99.90
16955;DHT22;8594;52.052;8.354;2023-02-10T12:33:16;8.60;99.90
16955;DHT22;8594;52.052;8.354;2023-02-10T12:36:01;8.70;99.90
16955;DHT22;8594;52.052;8.354;2023-02-10T12:38:47;8.80;99.90
16955;DHT22;8594;52.052;8.354;2023-02-10T12:41:30;8.80;99.90
16955;DHT22;8594;52.052;8.354;2023-02-10T12:44:16;9.20;99.90
16955;DHT22;8594;52.052;8.354;2023-02-10T12:46:59;9.20;99.90
16955;DHT22;8594;52.052;8.354;2023-02-10T12:49:45;9.50;99.90
16955;DHT22;8594;52.052;8.354;2023-02-10T12:52:29;9.70;99.90
16955;DHT22;8594;52.052;8.354;2023-02-10T12:55:05;9.50;99.90
16955;DHT22;8594;52.052;8.354;2023-02-10T12:57:43;9.50;99.90
16955;DHT22;8594;52.052;8.354;2023-02-10T13:00:16;9.40;99.90
16955;DHT22;8594;52.052;8.354;2023-02-10T13:02:51;9.10;99.90
16955;DHT22;8594;52.052;8.354;2023-02-10T13:05:27;9.00;99.90
16955;DHT22;8594;52.052;8.354;2023-02-10T13:08:00;8.90;99.90
16955;DHT22;8594;52.052;8.354;2023-02-10T13:10:32;8.80;99.90
16955;DHT22;8594;52.052;8.354;2023-02-10T13:13:06;8.80;99.90
16955;DHT22;8594;52.052;8.354;2023-02-10T13:15:39;8.70;99.90
16955;DHT22;8594;52.052;8.354;2023-02-10T13:18:17;8.60;99.90
16955;DHT22;8594;52.052;8.354;2023-02-10T13:20:53;8.60;99.90
16955;DHT22;8594;52.052;8.354;2023-02-10T13:23:29;8.80;99.90
16955;DHT22;8594;52.052;8.354;2023-02-10T13:26:14;9.00;99.90
16955;DHT22;8594;52.052;8.354;2023-02-10T13:29:01;9.10;99.90
16955;DHT22;8594;52.052;8.354;2023-02-10T13:31:52;9.00;99.90
16955;DHT22;8594;52.052;8.354;2023-02-10T13:34:30;8.90;99.90
16955;DHT22;8594;52.052;8.354;2023-02-10T13:37:05;8.90;99.90
16955;DHT22;8594;52.052;8.354;2023-02-10T13:39:34;8.90;99.90
16955;DHT22;8594;52.052;8.354;2023-02-10T13:42:08;8.80;99.90
16955;DHT22;8594;52.052;8.354;2023-02-10T13:44:41;9.00;99.90
16955;DHT22;8594;52.052;8.354;2023-02-10T13:47:18;9.10;99.90
16955;DHT22;8594;52.052;8.354;2023-02-10T13:49:55;9.10;99.90
16955;DHT22;8594;52.052;8.354;2023-02-10T13:52:30;9.10;99.90
16955;DHT22;8594;52.052;8.354;2023-02-10T13:55:02;9.30;99.90
16955;DHT22;8594;52.052;8.354;2023-02-10T13:57:53;9.20;99.90
16955;DHT22;8594;52.052;8.354;2023-02-10T14:00:23;9.10;99.90
16955;DHT22;8594;52.052;8.354;2023-02-10T14:03:00;9.20;99.90
16955;DHT22;8594;52.052;8.354;2023-02-10T14:05:32;9.40;99.90
16955;DHT22;8594;52.052;8.354;2023-02-10T14:08:12;9.30;99.90
16955;DHT22;8594;52.052;8.354;2023-02-10T14:10:40;8.90;99.90
16955;DHT22;8594;52.052;8.354;2023-02-10T14:13:21;8.60;99.90
16955;DHT22;8594;52.052;8.354;2023-02-10T14:15:56;8.70;99.90
16955;DHT22;8594;52.052;8.354;2023-02-10T14:18:27;8.70;99.90
16955;DHT22;8594;52.052;8.354;2023-02-10T14:20:57;8.60;99.90
16955;DHT22;8594;52.052;8.354;2023-02-10T14:23:29;8.50;99.90
16955;DHT22;8594;52.052;8.354;2023-02-10T14:25:59;8.50;99.90
16955;DHT22;8594;52.052;8.354;2023-02-10T14:28:31;8.50;99.90
16955;DHT22;8594;52.052;8.354;2023-02-10T14:31:04;8.60;99.90
16955;DHT22;8594;52.052;8.354;2023-02-10T14:33:36;8.60;99.90
16955;DHT22;8594;52.052;8.354;2023-02-10T14:36:07;8.60;99.90
16955;DHT22;8594;52.052;8.354;2023-02-10T14:38:50;8.60;99.90
16955;DHT22;8594;52.052;8.354;2023-02-10T14:41:19;8.60;99.90
16955;DHT22;8594;52.052;8.354;2023-02-10T14:43:46;8.50;99.90
16955;DHT22;8594;52.052;8.354;2023-02-10T14:46:20;8.40;99.90
16955;DHT22;8594;52.052;8.354;2023-02-10T14:48:48;8.10;99.90
16955;DHT22;8594;52.052;8.354;2023-02-10T14:51:21;8.20;99.90
16955;DHT22;8594;52.052;8.354;2023-02-10T14:53:50;8.20;99.90
16955;DHT22;8594;52.052;8.354;2023-02-10T14:56:22;8.20;99.90
16955;DHT22;8594;52.052;8.354;2023-02-10T14:58:50;8.10;99.90
16955;DHT22;8594;52.052;8.354;2023-02-10T15:01:23;8.10;99.90
16955;DHT22;8594;52.052;8.354;2023-02-10T15:03:52;8.10;99.90
16955;DHT22;8594;52.052;8.354;2023-02-10T15:06:23;8.10;99.90
16955;DHT22;8594;52.052;8.354;2023-02-10T15:08:55;8.20;99.90
16955;DHT22;8594;52.052;8.354;2023-02-10T15:11:32;8.10;99.90
16955;DHT22;8594;52.052;8.354;2023-02-10T15:14:23;8.00;99.90
16955;DHT22;8594;52.052;8.354;2023-02-10T15:16:55;8.10;99.90
16955;DHT22;8594;52.052;8.354;2023-02-10T15:19:24;7.90;99.90
16955;DHT22;8594;52.052;8.354;2023-02-10T15:21:51;8.00;99.90
16955;DHT22;8594;52.052;8.354;2023-02-10T15:24:21;7.90;99.90
16955;DHT22;8594;52.052;8.354;2023-02-10T15:26:52;8.00;99.90
16955;DHT22;8594;52.052;8.354;2023-02-10T15:29:19;7.90;99.90
16955;DHT22;8594;52.052;8.354;2023-02-10T15:31:57;8.00;99.90
16955;DHT22;8594;52.052;8.354;2023-02-10T15:34:26;7.90;99.90
16955;DHT22;8594;52.052;8.354;2023-02-10T15:36:59;7.80;99.90
16955;DHT22;8594;52.052;8.354;2023-02-10T15:39:31;7.90;99.90
16955;DHT22;8594;52.052;8.354;2023-02-10T15:42:03;7.80;99.90
16955;DHT22;8594;52.052;8.354;2023-02-10T15:44:46;7.60;99.90
16955;DHT22;8594;52.052;8.354;2023-02-10T15:47:22;7.60;99.90
16955;DHT22;8594;52.052;8.354;2023-02-10T15:49:56;7.50;99.90
16955;DHT22;8594;52.052;8.354;2023-02-10T15:52:27;7.30;99.90
16955;DHT22;8594;52.052;8.354;2023-02-10T15:55:00;7.40;99.90
16955;DHT22;8594;52.052;8.354;2023-02-10T15:57:29;7.40;99.90
16955;DHT22;8594;52.052;8.354;2023-02-10T15:59:56;7.40;99.90
16955;DHT22;8594;52.052;8.354;2023-02-10T16:02:24;7.40;99.90
16955;DHT22;8594;52.052;8.354;2023-02-10T16:04:52;7.40;99.90
16955;DHT22;8594;52.052;8.354;2023-02-10T16:07:21;7.50;99.90
16955;DHT22;8594;52.052;8.354;2023-02-10T16:09:51;7.50;99.90
16955;DHT22;8594;52.052;8.354;2023-02-10T16:12:20;7.60;99.90
16955;DHT22;8594;52.052;8.354;2023-02-10T16:14:47;7.50;99.90
16955;DHT22;8594;52.052;8.354;2023-02-10T16:17:19;7.40;99.90
16955;DHT22;8594;52.052;8.354;2023-02-10T16:19:49;7.50;99.90
16955;DHT22;8594;52.052;8.354;2023-02-10T16:22:16;7.50;99.90
16955;DHT22;8594;52.052;8.354;2023-02-10T16:24:44;7.40;99.90
16955;DHT22;8594;52.052;8.354;2023-02-10T16:27:14;7.40;99.90
16955;DHT22;8594;52.052;8.354;2023-02-10T16:29:42;7.30;99.90
16955;DHT22;8594;52.052;8.354;2023-02-10T16:32:12;7.40;99.90
16955;DHT22;8594;52.052;8.354;2023-02-10T16:34:38;7.30;99.90
16955;DHT22;8594;52.052;8.354;2023-02-10T16:37:05;7.30;99.90